createdAt,value
2023-06-15T00:01:25.773Z,19.32
2023-06-15T00:03:52.102Z,19.28
2023-06-15T00:06:18.440Z,19.26
2023-06-15T00:08:44.735Z,19.19
2023-06-15T00:11:11.006Z,19.19
2023-06-15T00:13:37.291Z,19.20
2023-06-15T00:16:03.696Z,19.17
2023-06-15T00:18:30.132Z,19.18
2023-06-15T00:20:56.427Z,19.15
2023-06-15T00:23:22.748Z,19.19
2023-06-15T00:25:49.032Z,19.10
2023-06-15T00:28:15.307Z,19.06
2023-06-15T00:30:41.609Z,19.05
2023-06-15T00:33:08.106Z,19.05
2023-06-15T00:35:34.503Z,18.98
2023-06-15T00:38:00.834Z,19.02
2023-06-15T00:40:27.115Z,19.13
2023-06-15T00:42:53.403Z,19.12
2023-06-15T00:45:19.958Z,19.12
2023-06-15T00:47:46.514Z,19.05
2023-06-15T00:50:12.847Z,18.98
2023-06-15T00:52:39.168Z,18.94
2023-06-15T00:55:05.486Z,18.92
2023-06-15T00:57:31.773Z,18.91
2023-06-15T00:59:58.055Z,18.88
2023-06-15T01:02:24.381Z,18.96
2023-06-15T01:04:50.683Z,18.93
2023-06-15T01:07:16.961Z,18.88
2023-06-15T01:09:43.278Z,18.88
2023-06-15T01:12:09.602Z,18.82
2023-06-15T01:14:35.890Z,18.72
2023-06-15T01:17:02.187Z,18.66
2023-06-15T01:19:28.750Z,18.60
2023-06-15T01:21:55.062Z,18.46
2023-06-15T01:24:21.435Z,18.42
2023-06-15T01:26:48.588Z,18.37
2023-06-15T01:29:15.279Z,18.42
2023-06-15T01:31:41.917Z,18.36
2023-06-15T01:34:08.561Z,18.32
2023-06-15T01:36:35.239Z,18.31
2023-06-15T01:39:01.598Z,18.34
2023-06-15T01:41:28.105Z,18.42
2023-06-15T01:43:54.478Z,18.44
2023-06-15T01:46:21.189Z,18.46
2023-06-15T01:48:47.583Z,18.46
2023-06-15T01:51:14.055Z,18.53
2023-06-15T01:53:40.342Z,18.46
2023-06-15T01:56:06.637Z,18.52
2023-06-15T01:58:32.967Z,18.53
2023-06-15T02:00:59.265Z,18.53
2023-06-15T02:03:25.807Z,18.48
2023-06-15T02:05:52.239Z,18.51
2023-06-15T02:08:18.620Z,18.43
2023-06-15T02:10:45.269Z,18.48
2023-06-15T02:13:11.866Z,18.50
2023-06-15T02:15:38.348Z,18.47
2023-06-15T02:18:05.085Z,18.46
2023-06-15T02:20:31.724Z,18.45
2023-06-15T02:22:58.234Z,18.40
2023-06-15T02:25:24.792Z,18.31
2023-06-15T02:27:51.465Z,18.34
2023-06-15T02:30:17.820Z,18.27
2023-06-15T02:32:44.327Z,18.22
2023-06-15T02:35:10.766Z,18.26
2023-06-15T02:37:37.048Z,18.26
2023-06-15T02:40:03.379Z,18.26
2023-06-15T02:42:29.707Z,18.21
2023-06-15T02:44:56.726Z,18.34
2023-06-15T02:47:23.092Z,18.28
2023-06-15T02:49:49.705Z,18.21
2023-06-15T02:52:16.730Z,18.20
2023-06-15T02:54:43.105Z,18.26
2023-06-15T02:57:10.071Z,18.17
2023-06-15T02:59:36.546Z,18.15
2023-06-15T03:02:02.931Z,18.29
2023-06-15T03:04:29.214Z,18.34
2023-06-15T03:06:55.506Z,18.37
2023-06-15T03:09:21.960Z,18.24
2023-06-15T03:11:48.529Z,18.14
2023-06-15T03:14:14.943Z,18.12
2023-06-15T03:16:41.259Z,18.18
2023-06-15T03:19:07.603Z,18.08
2023-06-15T03:21:34.383Z,18.02
2023-06-15T03:24:00.976Z,17.99
2023-06-15T03:26:27.304Z,18.07
2023-06-15T03:28:54.562Z,18.04
2023-06-15T03:31:21.315Z,18.03
2023-06-15T03:33:47.770Z,18.02
2023-06-15T03:36:14.225Z,17.98
2023-06-15T03:38:40.993Z,18.02
2023-06-15T03:41:07.502Z,18.03
2023-06-15T03:43:33.853Z,18.00
2023-06-15T03:46:00.589Z,18.07
2023-06-15T03:48:27.033Z,17.94
2023-06-15T03:50:53.496Z,17.98
2023-06-15T03:53:19.879Z,17.97
2023-06-15T03:55:46.306Z,17.96
2023-06-15T03:58:13.072Z,18.01
2023-06-15T04:00:39.560Z,18.04
2023-06-15T04:03:06.185Z,18.14
2023-06-15T04:05:32.510Z,18.13
2023-06-15T04:07:58.822Z,18.15
2023-06-15T04:10:25.182Z,18.15
2023-06-15T04:12:51.434Z,18.09
2023-06-15T04:15:18.029Z,18.25
2023-06-15T04:17:44.510Z,18.11
2023-06-15T04:20:11.145Z,18.10
2023-06-15T04:22:37.565Z,18.13
2023-06-15T04:25:04.048Z,18.18
2023-06-15T04:27:30.514Z,18.08
2023-06-15T04:29:57.077Z,18.16
2023-06-15T04:32:23.439Z,18.24
2023-06-15T04:34:49.746Z,18.30
2023-06-15T04:37:16.504Z,18.33
2023-06-15T04:39:42.937Z,18.29
2023-06-15T04:42:09.292Z,18.26
2023-06-15T04:44:35.562Z,18.32
2023-06-15T04:47:02.105Z,18.35
2023-06-15T04:49:28.559Z,18.34
2023-06-15T04:51:54.916Z,18.46
2023-06-15T04:54:21.509Z,18.52
2023-06-15T04:56:47.949Z,18.56
2023-06-15T04:59:14.367Z,18.43
2023-06-15T05:01:40.907Z,18.52
2023-06-15T05:04:07.178Z,18.57
2023-06-15T05:06:33.471Z,18.51
2023-06-15T05:08:59.890Z,18.49
2023-06-15T05:11:26.216Z,18.34
2023-06-15T05:13:52.550Z,18.38
2023-06-15T05:16:18.820Z,18.39
2023-06-15T05:18:45.145Z,18.42
2023-06-15T05:21:12.006Z,18.62
2023-06-15T05:23:38.393Z,18.82
2023-06-15T05:26:07.494Z,18.85
2023-06-15T05:28:41.009Z,18.77
2023-06-15T05:31:07.339Z,18.87
2023-06-15T05:33:33.665Z,19.03
2023-06-15T05:36:01.811Z,19.31
2023-06-15T05:38:33.614Z,19.44
2023-06-15T05:41:00.173Z,19.46
2023-06-15T05:43:26.639Z,19.47
2023-06-15T05:45:56.312Z,19.57
2023-06-15T05:48:22.866Z,19.60
2023-06-15T05:50:49.198Z,19.63
2023-06-15T05:53:15.726Z,19.60
2023-06-15T05:55:42.309Z,19.63
2023-06-15T05:58:08.695Z,19.78
2023-06-15T06:00:34.960Z,19.70
2023-06-15T06:03:01.649Z,19.67
2023-06-15T06:05:28.180Z,19.77
2023-06-15T06:07:55.684Z,19.90
2023-06-15T06:10:22.297Z,19.85
2023-06-15T06:12:48.633Z,20.00
2023-06-15T06:15:16.901Z,20.04
2023-06-15T06:17:59.179Z,20.08
2023-06-15T06:20:32.397Z,20.23
2023-06-15T06:22:58.665Z,20.38
2023-06-15T06:25:24.915Z,20.40
2023-06-15T06:27:51.200Z,20.59
2023-06-15T06:30:17.553Z,20.60
2023-06-15T06:32:46.550Z,20.63
2023-06-15T06:35:13.013Z,20.64
2023-06-15T06:37:39.409Z,20.68
2023-06-15T06:40:05.711Z,21.02
2023-06-15T06:42:31.971Z,21.15
2023-06-15T06:44:58.237Z,21.08
2023-06-15T06:47:24.548Z,21.12
2023-06-15T06:49:50.903Z,21.34
2023-06-15T06:52:17.248Z,21.34
2023-06-15T06:54:43.594Z,21.32
2023-06-15T06:57:09.876Z,21.53
2023-06-15T06:59:43.376Z,21.57
2023-06-15T07:02:10.759Z,21.65
2023-06-15T07:04:37.332Z,21.83
2023-06-15T07:07:03.631Z,22.01
2023-06-15T07:09:30.007Z,22.11
2023-06-15T07:11:56.317Z,22.15
2023-06-15T07:14:22.613Z,22.32
2023-06-15T07:16:48.931Z,22.47
2023-06-15T07:19:15.236Z,22.42
2023-06-15T07:21:41.603Z,22.81
2023-06-15T07:24:07.914Z,22.66
2023-06-15T07:26:34.266Z,22.93
2023-06-15T07:29:00.587Z,22.97
2023-06-15T07:31:26.893Z,23.00
2023-06-15T07:33:53.186Z,23.04
2023-06-15T07:36:19.486Z,23.16
2023-06-15T07:38:45.798Z,23.23
2023-06-15T07:41:12.069Z,23.32
2023-06-15T07:43:38.338Z,23.44
2023-06-15T07:46:04.627Z,23.20
2023-06-15T07:48:30.965Z,23.49
2023-06-15T07:50:57.253Z,23.65
2023-06-15T07:53:23.570Z,23.74
2023-06-15T07:55:49.854Z,23.72
2023-06-15T07:58:16.202Z,23.70
2023-06-15T08:00:42.515Z,23.83
2023-06-15T08:03:08.919Z,24.02
2023-06-15T08:05:35.307Z,24.09
2023-06-15T08:08:01.651Z,24.18
2023-06-15T08:10:27.978Z,24.30
2023-06-15T08:12:54.313Z,24.41
2023-06-15T08:15:20.619Z,24.56
2023-06-15T08:17:47.008Z,24.68
2023-06-15T08:20:13.420Z,24.75
2023-06-15T08:22:39.699Z,24.81
2023-06-15T08:25:05.964Z,24.81
2023-06-15T08:27:32.295Z,24.92
2023-06-15T08:29:58.649Z,24.79
2023-06-15T08:32:25.072Z,24.98
2023-06-15T08:34:51.434Z,25.15
2023-06-15T08:37:17.754Z,25.30
2023-06-15T08:39:44.104Z,25.42
2023-06-15T08:42:10.456Z,25.49
2023-06-15T08:44:36.757Z,25.58
2023-06-15T08:47:03.047Z,25.72
2023-06-15T08:49:29.376Z,25.85
2023-06-15T08:51:55.658Z,25.77
2023-06-15T08:54:21.942Z,25.76
2023-06-15T08:56:48.215Z,25.76
2023-06-15T08:59:14.522Z,25.71
2023-06-15T09:01:40.893Z,25.77
2023-06-15T09:04:07.478Z,25.70
2023-06-15T09:06:33.803Z,25.63
2023-06-15T09:09:00.150Z,25.65
2023-06-15T09:11:26.534Z,25.80
2023-06-15T09:13:52.915Z,25.89
2023-06-15T09:16:19.221Z,26.11
2023-06-15T09:18:45.513Z,26.16
2023-06-15T09:21:11.787Z,26.25
2023-06-15T09:23:38.118Z,26.18
2023-06-15T09:26:04.376Z,26.36
2023-06-15T09:28:30.658Z,26.50
2023-06-15T09:30:56.916Z,26.65
2023-06-15T09:33:23.273Z,26.74
2023-06-15T09:35:49.547Z,26.81
2023-06-15T09:38:15.860Z,26.90
2023-06-15T09:40:42.180Z,26.88
2023-06-15T09:43:08.482Z,26.81
2023-06-15T09:45:37.259Z,26.81
2023-06-15T09:48:04.570Z,26.84
2023-06-15T09:50:31.004Z,26.94
2023-06-15T09:52:57.314Z,27.08
2023-06-15T09:55:23.640Z,27.06
2023-06-15T09:57:49.931Z,27.11
2023-06-15T10:00:16.634Z,27.22
2023-06-15T10:02:43.230Z,27.09
2023-06-15T10:05:09.517Z,27.04
2023-06-15T10:07:35.808Z,27.38
2023-06-15T10:10:02.126Z,27.69
2023-06-15T10:12:28.469Z,27.98
2023-06-15T10:14:54.790Z,28.06
2023-06-15T10:17:21.094Z,28.13
2023-06-15T10:19:47.401Z,28.35
2023-06-15T10:22:13.732Z,28.49
2023-06-15T10:24:40.037Z,28.77
2023-06-15T10:27:06.846Z,28.60
2023-06-15T10:29:33.203Z,28.70
2023-06-15T10:31:59.584Z,28.65
2023-06-15T10:34:25.886Z,28.35
2023-06-15T10:36:52.213Z,28.23
2023-06-15T10:39:18.532Z,28.27
2023-06-15T10:41:44.815Z,28.29
2023-06-15T10:44:11.153Z,28.43
2023-06-15T10:46:37.477Z,28.57
2023-06-15T10:49:03.855Z,28.72
2023-06-15T10:51:30.159Z,28.68
2023-06-15T10:53:56.463Z,29.20
2023-06-15T10:56:22.729Z,29.41
2023-06-15T10:58:49.274Z,29.65
2023-06-15T11:01:15.588Z,29.48
2023-06-15T11:03:41.926Z,29.54
2023-06-15T11:06:08.208Z,29.76
2023-06-15T11:08:34.528Z,30.02
2023-06-15T11:11:01.036Z,29.94
2023-06-15T11:13:27.384Z,29.68
2023-06-15T11:15:53.676Z,29.69
2023-06-15T11:18:20.057Z,29.91
2023-06-15T11:20:46.379Z,30.19
2023-06-15T11:23:12.678Z,30.53
2023-06-15T11:25:38.973Z,30.73
2023-06-15T11:28:05.269Z,30.66
2023-06-15T11:30:34.132Z,30.32
2023-06-15T11:33:01.224Z,30.00
2023-06-15T11:35:27.608Z,30.26
2023-06-15T11:37:53.943Z,30.76
2023-06-15T11:40:20.368Z,31.25
2023-06-15T11:42:46.915Z,31.54
2023-06-15T11:45:13.262Z,31.40
2023-06-15T11:47:39.652Z,31.42
2023-06-15T11:50:05.939Z,31.21
2023-06-15T11:52:32.256Z,31.19
2023-06-15T11:54:59.338Z,31.33
2023-06-15T11:57:25.787Z,31.61
2023-06-15T11:59:52.145Z,31.39
2023-06-15T12:02:18.495Z,30.87
2023-06-15T12:04:44.823Z,30.36
2023-06-15T12:07:21.266Z,29.88
2023-06-15T12:09:57.577Z,29.29
2023-06-15T12:12:23.858Z,28.74
2023-06-15T12:14:50.153Z,28.23
2023-06-15T12:17:16.466Z,27.83
2023-06-15T12:19:42.739Z,27.49
2023-06-15T12:22:09.055Z,27.37
2023-06-15T12:24:35.522Z,27.38
2023-06-15T12:27:01.862Z,27.41
2023-06-15T12:29:28.145Z,27.47
2023-06-15T12:31:54.449Z,27.59
2023-06-15T12:34:20.796Z,27.69
2023-06-15T12:36:47.083Z,28.43
2023-06-15T12:39:13.375Z,28.97
2023-06-15T12:41:39.717Z,29.35
2023-06-15T12:44:06.008Z,30.01
2023-06-15T12:46:32.397Z,30.58
2023-06-15T12:48:58.724Z,30.70
2023-06-15T12:51:25.059Z,30.97
2023-06-15T12:53:51.366Z,31.19
2023-06-15T12:56:17.634Z,30.99
2023-06-15T12:58:43.985Z,30.87
2023-06-15T13:01:10.278Z,30.96
2023-06-15T13:03:36.886Z,30.96
2023-06-15T13:06:03.384Z,31.09
2023-06-15T13:08:29.730Z,31.53
2023-06-15T13:10:56.031Z,31.82
2023-06-15T13:13:22.347Z,31.29
2023-06-15T13:15:48.663Z,31.20
2023-06-15T13:18:15.142Z,30.51
2023-06-15T13:20:41.598Z,30.69
2023-06-15T13:23:07.875Z,30.77
2023-06-15T13:25:34.160Z,31.13
2023-06-15T13:28:00.496Z,31.40
2023-06-15T13:30:26.805Z,31.28
2023-06-15T13:32:53.142Z,31.50
2023-06-15T13:35:19.804Z,31.32
2023-06-15T13:37:46.301Z,31.74
2023-06-15T13:40:12.581Z,32.33
2023-06-15T13:42:38.892Z,32.56
2023-06-15T13:45:05.203Z,32.22
2023-06-15T13:47:31.567Z,32.34
2023-06-15T13:49:57.873Z,32.32
2023-06-15T13:52:24.180Z,32.64
2023-06-15T13:54:50.461Z,32.85
2023-06-15T13:57:16.809Z,32.69
2023-06-15T13:59:43.245Z,32.18
2023-06-15T14:02:09.643Z,31.78
2023-06-15T14:04:35.994Z,31.88
2023-06-15T14:07:02.296Z,32.12
2023-06-15T14:09:28.539Z,32.28
2023-06-15T14:11:54.841Z,32.61
2023-06-15T14:14:21.290Z,32.69
2023-06-15T14:16:47.581Z,32.49
2023-06-15T14:19:13.952Z,32.02
2023-06-15T14:21:40.224Z,32.04
2023-06-15T14:24:06.533Z,32.32
2023-06-15T14:26:32.902Z,32.53
2023-06-15T14:28:59.273Z,32.62
2023-06-15T14:31:25.668Z,32.69
2023-06-15T14:33:52.014Z,32.86
2023-06-15T14:36:18.289Z,32.87
2023-06-15T14:38:44.600Z,32.90
2023-06-15T14:41:11.122Z,32.87
2023-06-15T14:43:37.465Z,32.49
2023-06-15T14:46:03.837Z,32.42
2023-06-15T14:48:30.186Z,32.55
2023-06-15T14:50:56.510Z,32.71
2023-06-15T14:53:22.807Z,32.79
2023-06-15T14:55:49.094Z,32.81
2023-06-15T14:58:15.534Z,32.58
2023-06-15T15:00:41.822Z,32.55
2023-06-15T15:03:08.336Z,32.50
2023-06-15T15:05:34.744Z,32.20
2023-06-15T15:08:01.021Z,32.34
2023-06-15T15:10:27.303Z,32.42
2023-06-15T15:12:53.632Z,32.33
2023-06-15T15:15:19.911Z,32.11
2023-06-15T15:17:46.198Z,31.72
2023-06-15T15:20:12.493Z,31.31
2023-06-15T15:22:38.823Z,31.03
2023-06-15T15:25:05.127Z,31.28
2023-06-15T15:27:31.412Z,31.17
2023-06-15T15:29:57.721Z,30.86
2023-06-15T15:32:24.045Z,30.76
2023-06-15T15:34:50.437Z,30.74
2023-06-15T15:37:16.798Z,30.64
2023-06-15T15:39:43.127Z,30.40
2023-06-15T15:42:09.462Z,30.13
2023-06-15T15:44:35.749Z,30.10
2023-06-15T15:47:02.025Z,30.23
2023-06-15T15:49:28.296Z,30.35
2023-06-15T15:51:54.646Z,30.43
2023-06-15T15:54:20.941Z,30.59
2023-06-15T15:56:47.309Z,30.65
2023-06-15T15:59:13.614Z,30.85
2023-06-15T16:01:39.927Z,31.17
2023-06-15T16:04:06.296Z,31.29
2023-06-15T16:06:32.682Z,31.42
2023-06-15T16:08:59.013Z,31.44
2023-06-15T16:11:25.328Z,31.54
2023-06-15T16:13:51.625Z,31.35
2023-06-15T16:16:28.042Z,31.32
2023-06-15T16:18:55.350Z,31.31
2023-06-15T16:21:21.644Z,31.43
2023-06-15T16:23:48.011Z,31.50
2023-06-15T16:26:14.343Z,31.27
2023-06-15T16:28:40.792Z,30.97
2023-06-15T16:31:07.127Z,30.31
2023-06-15T16:33:33.482Z,29.85
2023-06-15T16:35:59.861Z,29.62
2023-06-15T16:38:26.188Z,29.66
2023-06-15T16:40:52.527Z,29.87
2023-06-15T16:43:18.826Z,29.86
2023-06-15T16:45:45.142Z,29.87
2023-06-15T16:48:11.464Z,30.00
2023-06-15T16:50:37.848Z,30.08
2023-06-15T16:53:04.111Z,29.64
2023-06-15T16:55:30.436Z,29.46
2023-06-15T16:57:56.720Z,29.44
2023-06-15T17:00:22.976Z,29.37
2023-06-15T17:02:49.366Z,29.30
2023-06-15T17:05:15.686Z,29.35
2023-06-15T17:07:42.026Z,29.45
2023-06-15T17:10:08.357Z,29.57
2023-06-15T17:12:34.700Z,29.58
2023-06-15T17:15:03.983Z,29.62
2023-06-15T17:17:30.419Z,29.54
2023-06-15T17:19:56.710Z,29.53
2023-06-15T17:22:23.020Z,29.63
2023-06-15T17:24:49.307Z,29.74
2023-06-15T17:27:15.588Z,29.79
2023-06-15T17:29:41.909Z,29.91
2023-06-15T17:32:10.001Z,30.36
2023-06-15T17:34:37.850Z,31.04
2023-06-15T17:37:04.126Z,30.34
2023-06-15T17:39:30.398Z,30.70
2023-06-15T17:41:56.670Z,29.69
2023-06-15T17:44:23.003Z,28.78
2023-06-15T17:46:49.359Z,28.36
2023-06-15T17:49:15.652Z,28.06
2023-06-15T17:51:41.984Z,27.86
2023-06-15T17:54:08.291Z,27.74
2023-06-15T17:56:34.601Z,27.64
2023-06-15T17:59:00.882Z,27.63
2023-06-15T18:01:27.189Z,27.47
2023-06-15T18:03:53.650Z,27.36
2023-06-15T18:06:20.100Z,27.26
2023-06-15T18:08:46.398Z,27.13
2023-06-15T18:11:12.674Z,26.95
2023-06-15T18:13:39.008Z,26.75
2023-06-15T18:16:05.448Z,26.55
2023-06-15T18:18:31.812Z,26.51
2023-06-15T18:20:58.097Z,26.54
2023-06-15T18:23:24.455Z,26.48
2023-06-15T18:25:50.738Z,26.41
2023-06-15T18:28:16.987Z,26.36
2023-06-15T18:30:43.302Z,26.28
2023-06-15T18:33:09.687Z,26.26
2023-06-15T18:35:35.960Z,26.25
2023-06-15T18:38:02.198Z,26.25
2023-06-15T18:40:28.509Z,26.16
2023-06-15T18:42:54.771Z,26.06
2023-06-15T18:45:21.207Z,26.00
2023-06-15T18:47:47.658Z,25.96
2023-06-15T18:50:13.989Z,25.90
2023-06-15T18:52:40.291Z,25.84
2023-06-15T18:55:06.629Z,25.80
2023-06-15T18:57:32.924Z,25.79
2023-06-15T18:59:59.306Z,25.64
2023-06-15T19:02:25.673Z,25.61
2023-06-15T19:04:52.051Z,25.54
2023-06-15T19:07:18.380Z,25.48
2023-06-15T19:09:44.644Z,25.42
2023-06-15T19:12:10.915Z,25.36
2023-06-15T19:14:37.285Z,25.32
2023-06-15T19:17:03.824Z,25.26
2023-06-15T19:19:30.722Z,25.21
2023-06-15T19:21:57.159Z,25.12
2023-06-15T19:24:23.569Z,25.04
2023-06-15T19:26:52.439Z,24.96
2023-06-15T19:29:18.770Z,24.84
2023-06-15T19:31:45.085Z,24.74
2023-06-15T19:34:11.357Z,24.66
2023-06-15T19:36:37.682Z,24.63
2023-06-15T19:39:03.932Z,24.59
2023-06-15T19:41:30.231Z,24.57
2023-06-15T19:43:56.564Z,24.55
2023-06-15T19:46:22.901Z,24.54
2023-06-15T19:48:49.211Z,24.49
2023-06-15T19:51:15.468Z,24.39
2023-06-15T19:53:41.760Z,24.32
2023-06-15T19:56:08.038Z,24.28
2023-06-15T19:58:34.329Z,24.24
2023-06-15T20:01:00.612Z,24.16
2023-06-15T20:03:26.933Z,24.14
2023-06-15T20:05:53.393Z,24.11
2023-06-15T20:08:19.684Z,24.09
2023-06-15T20:10:45.970Z,24.01
2023-06-15T20:13:12.339Z,23.89
2023-06-15T20:15:38.623Z,23.86
2023-06-15T20:18:04.914Z,23.84
2023-06-15T20:20:31.246Z,23.82
2023-06-15T20:22:57.714Z,23.74
2023-06-15T20:25:24.030Z,23.66
2023-06-15T20:27:50.295Z,23.66
2023-06-15T20:30:16.838Z,23.66
2023-06-15T20:32:43.301Z,23.64
2023-06-15T20:35:09.564Z,23.52
2023-06-15T20:37:35.883Z,23.41
2023-06-15T20:40:02.194Z,23.32
2023-06-15T20:42:28.542Z,23.31
2023-06-15T20:44:54.806Z,23.32
2023-06-15T20:47:21.062Z,23.34
2023-06-15T20:49:47.383Z,23.29
2023-06-15T20:52:13.647Z,23.23
2023-06-15T20:54:39.946Z,23.18
2023-06-15T20:57:06.266Z,23.15
2023-06-15T20:59:32.572Z,23.16
2023-06-15T21:01:58.857Z,23.11
2023-06-15T21:04:25.181Z,23.10
2023-06-15T21:06:51.506Z,23.08
2023-06-15T21:09:18.100Z,23.03
2023-06-15T21:11:44.423Z,22.96
2023-06-15T21:14:10.713Z,22.99
2023-06-15T21:16:37.064Z,23.05
2023-06-15T21:19:03.402Z,23.04
2023-06-15T21:21:29.747Z,23.02
2023-06-15T21:23:56.091Z,23.00
2023-06-15T21:26:22.393Z,22.98
2023-06-15T21:28:48.673Z,23.01
2023-06-15T21:31:14.920Z,22.98
2023-06-15T21:33:41.233Z,22.97
2023-06-15T21:36:07.546Z,22.97
2023-06-15T21:38:33.980Z,22.96
2023-06-15T21:41:00.240Z,22.87
2023-06-15T21:45:52.977Z,22.76
2023-06-15T21:48:19.349Z,22.71
2023-06-15T21:50:45.684Z,22.62
2023-06-15T21:53:12.004Z,22.56
2023-06-15T21:55:38.458Z,22.49
2023-06-15T21:58:04.742Z,22.44
2023-06-15T22:00:31.001Z,22.36
2023-06-15T22:02:57.380Z,22.31
2023-06-15T22:05:23.791Z,22.31
2023-06-15T22:07:50.094Z,22.26
2023-06-15T22:10:16.810Z,22.24
2023-06-15T22:12:43.300Z,22.25
2023-06-15T22:15:09.584Z,22.18
2023-06-15T22:17:35.968Z,22.08
2023-06-15T22:20:02.258Z,22.04
2023-06-15T22:22:28.563Z,22.02
2023-06-15T22:24:54.845Z,21.98
2023-06-15T22:27:21.147Z,21.97
2023-06-15T22:29:47.442Z,21.90
2023-06-15T22:32:13.699Z,21.82
2023-06-15T22:34:39.973Z,21.73
2023-06-15T22:37:06.227Z,21.68
2023-06-15T22:39:32.481Z,21.67
2023-06-15T22:41:58.778Z,21.66
2023-06-15T22:44:25.070Z,21.63
2023-06-15T22:46:51.380Z,21.61
2023-06-15T22:49:17.771Z,21.56
2023-06-15T22:51:44.027Z,21.51
2023-06-15T22:54:10.339Z,21.50
2023-06-15T22:56:36.591Z,21.47
2023-06-15T22:59:02.870Z,21.40
2023-06-15T23:01:29.253Z,21.38
2023-06-15T23:03:55.581Z,21.36
2023-06-15T23:06:21.955Z,21.34
2023-06-15T23:08:48.438Z,21.31
2023-06-15T23:11:14.718Z,21.28
2023-06-15T23:13:41.007Z,21.26
2023-06-15T23:16:07.277Z,21.25
2023-06-15T23:18:33.613Z,21.24
2023-06-15T23:20:59.884Z,21.24
2023-06-15T23:23:26.217Z,21.23
2023-06-15T23:25:52.553Z,21.22
2023-06-15T23:28:18.914Z,21.19
2023-06-15T23:30:45.209Z,21.15
2023-06-15T23:33:11.483Z,21.15
2023-06-15T23:35:37.799Z,21.13
2023-06-15T23:38:04.101Z,21.10
2023-06-15T23:40:30.430Z,21.09
2023-06-15T23:42:56.741Z,21.07
2023-06-15T23:45:23.068Z,21.07
2023-06-15T23:47:49.475Z,21.03
2023-06-15T23:50:15.900Z,21.03
2023-06-15T23:52:42.351Z,21.03
2023-06-15T23:55:08.683Z,21.03
2023-06-15T23:57:35.067Z,21.05
